»·PEaware :: N210AR KTSP-KUDD

N210AR :: KTSP-KUDD

FLIGHT INFORMATION

Flight Status: Arrived
Operator: Privately registered:
United States
More flights under this callsign
Pilot: Max S. (16657)
Aircraft: CESSNA 172 SKYHAWK
(C172)
More flights by this aircraft type
Origin: KTSP Tehachapi Mun
United States
Destination: KUDD Bermuda Dunes
United States
More flights between these airports :: More routes between these airports
Route:
File this flight plan on PilotEdge
Remarks: ALPHABET CHALLENGE
Altitude:
(Current/Filed)
7,500ft
Speed:
(Current/Filed)
110kts
Departed: 14-Oct-19 07:36 AM
Arrived: 14-Oct-19 08:54 AM
Distance/Time
Traveled:
136nm/1:17
Distance/Time
To Go:
Arrived

Flight Plot

Page will automatically refresh every two minutes.


Map Options




Map Legend


Flown Route
Filed Route
Departure Airport
Arrival Airport
Navaid (VOR, NDB)
Fix

Horizontal Profiles

Position Reports

Time Latitude Longitude Heading Altitude Ground
Speed
14-Oct-19 07:10 35.133810 -118.439188 99 3980ft 0kts
14-Oct-19 07:11 35.133810 -118.439188 99 3980ft 0kts
14-Oct-19 07:12 35.133810 -118.439188 99 3980ft 0kts
14-Oct-19 07:13 35.133810 -118.439188 99 3980ft 0kts
14-Oct-19 07:14 35.133810 -118.439188 99 3980ft 0kts
14-Oct-19 07:15 35.133810 -118.439188 99 3980ft 0kts
14-Oct-19 07:16 35.133810 -118.439188 99 3980ft 0kts
14-Oct-19 07:17 35.133810 -118.439188 99 3980ft 0kts
14-Oct-19 07:18 35.133810 -118.439188 99 3980ft 0kts
14-Oct-19 07:19 35.133810 -118.439188 99 3980ft 0kts
14-Oct-19 07:20 35.133810 -118.439188 99 3980ft 0kts
14-Oct-19 07:21 35.133810 -118.439188 99 3980ft 0kts
14-Oct-19 07:22 35.133810 -118.439188 99 3980ft 0kts
14-Oct-19 07:23 35.133810 -118.439188 99 3980ft 0kts
14-Oct-19 07:24 35.133810 -118.439188 99 3980ft 0kts
14-Oct-19 07:25 35.133810 -118.439188 99 3980ft 0kts
14-Oct-19 07:26 35.133810 -118.439188 99 3980ft 0kts
14-Oct-19 07:27 35.133810 -118.439188 99 3980ft 0kts
14-Oct-19 07:28 35.133898 -118.439093 14 3980ft 3kts
14-Oct-19 07:29 35.135403 -118.440702 305 3980ft 12kts
14-Oct-19 07:30 35.137506 -118.444463 304 3980ft 6kts
14-Oct-19 07:31 35.137517 -118.444482 304 3980ft 0kts
14-Oct-19 07:32 35.137517 -118.444482 304 3980ft 0kts
14-Oct-19 07:33 35.137517 -118.444482 304 3980ft 0kts
14-Oct-19 07:34 35.137528 -118.444501 304 3980ft 1kts
14-Oct-19 07:35 35.134403 -118.438610 119 4026ft 60kts
14-Oct-19 07:36 35.124654 -118.417106 119 4696ft 75kts
14-Oct-19 07:37 35.105692 -118.406886 167 5426ft 79kts
14-Oct-19 07:38 35.084733 -118.400277 150 6097ft 82kts
14-Oct-19 07:39 35.062512 -118.393286 156 6569ft 104kts
14-Oct-19 07:40 35.034556 -118.375550 148 6901ft 111kts
14-Oct-19 07:41 35.008241 -118.357101 147 7403ft 107kts
14-Oct-19 07:42 34.981126 -118.337973 148 7542ft 129kts
14-Oct-19 07:43 34.950572 -118.316598 148 7494ft 124kts
14-Oct-19 07:44 34.920799 -118.295628 148 7481ft 124kts
14-Oct-19 07:45 34.891333 -118.274992 149 7469ft 124kts
14-Oct-19 07:46 34.861432 -118.254025 149 7465ft 127kts
14-Oct-19 07:47 34.830683 -118.232478 149 7465ft 128kts
14-Oct-19 07:48 34.799698 -118.210778 149 7465ft 128kts
14-Oct-19 07:49 34.768774 -118.189141 149 7464ft 128kts
14-Oct-19 07:50 34.737457 -118.168908 167 7462ft 128kts
14-Oct-19 07:51 34.706903 -118.147737 152 7459ft 128kts
14-Oct-19 07:52 34.685317 -118.115677 115 7463ft 126kts
14-Oct-19 07:53 34.670720 -118.076862 111 7463ft 126kts
14-Oct-19 07:54 34.657106 -118.037481 110 7460ft 126kts
14-Oct-19 07:55 34.643602 -117.997714 110 7458ft 127kts
14-Oct-19 07:56 34.630146 -117.957923 110 7457ft 127kts
14-Oct-19 07:58 34.616725 -117.918129 110 7457ft 127kts
14-Oct-19 07:59 34.603251 -117.878300 110 7457ft 127kts
14-Oct-19 08:00 34.589696 -117.838406 110 7458ft 127kts
14-Oct-19 08:01 34.576238 -117.798786 110 7462ft 125kts
14-Oct-19 08:02 34.562983 -117.759746 109 7465ft 125kts
14-Oct-19 08:03 34.549680 -117.720752 113 7466ft 125kts
14-Oct-19 08:04 34.529300 -117.686276 116 7474ft 127kts
14-Oct-19 08:05 34.514040 -117.647514 111 7475ft 127kts
14-Oct-19 08:06 34.500802 -117.608814 109 7696ft 116kts
14-Oct-19 08:07 34.489265 -117.573895 108 8189ft 108kts
14-Oct-19 08:08 34.478296 -117.540558 107 8686ft 104kts
14-Oct-19 08:09 34.467719 -117.508368 107 9183ft 101kts
14-Oct-19 08:10 34.457540 -117.477299 107 9488ft 115kts
14-Oct-19 08:11 34.446484 -117.443867 108 9481ft 125kts
14-Oct-19 08:12 34.435259 -117.407889 103 9481ft 122kts
14-Oct-19 08:13 34.426235 -117.372570 102 9479ft 122kts
14-Oct-19 08:14 34.417545 -117.338971 104 9478ft 122kts
14-Oct-19 08:15 34.415984 -117.304823 101 9477ft 121kts
14-Oct-19 08:16 34.408684 -117.265904 96 9478ft 120kts
14-Oct-19 08:17 34.402022 -117.223941 96 9478ft 120kts
14-Oct-19 08:17 34.396769 -117.190870 96 9478ft 120kts
14-Oct-19 08:19 34.391395 -117.143372 87 9538ft 118kts
14-Oct-19 08:19 34.390331 -117.108956 87 9537ft 119kts
14-Oct-19 08:20 34.386818 -117.068555 94 9532ft 122kts
14-Oct-19 08:21 34.385692 -117.026539 92 9531ft 126kts
14-Oct-19 08:22 34.384330 -116.983926 96 9528ft 126kts
14-Oct-19 08:23 34.380537 -116.941860 106 9525ft 125kts
14-Oct-19 08:24 34.372427 -116.901007 106 9524ft 124kts
14-Oct-19 08:25 34.364317 -116.860250 106 9522ft 124kts
14-Oct-19 08:26 34.355804 -116.819780 112 9523ft 125kts
14-Oct-19 08:27 34.337644 -116.784373 126 9517ft 123kts
14-Oct-19 08:28 34.318901 -116.749460 126 9512ft 123kts
14-Oct-19 08:29 34.300159 -116.714562 125 9504ft 124kts
14-Oct-19 08:30 34.281398 -116.679635 125 9495ft 124kts
14-Oct-19 08:31 34.262556 -116.644619 125 9483ft 123kts
14-Oct-19 08:32 34.243837 -116.609831 125 9487ft 123kts
14-Oct-19 08:33 34.225193 -116.575234 125 9499ft 122kts
14-Oct-19 08:34 34.206573 -116.540728 125 9509ft 122kts
14-Oct-19 08:35 34.187944 -116.506166 124 9515ft 123kts
14-Oct-19 08:36 34.169155 -116.471437 125 9517ft 123kts
14-Oct-19 08:37 34.150397 -116.436781 125 9515ft 123kts
14-Oct-19 08:38 34.133053 -116.400985 127 9509ft 123kts
14-Oct-19 08:39 34.106896 -116.376620 137 9502ft 122kts
14-Oct-19 08:40 34.083211 -116.347600 137 9499ft 122kts
14-Oct-19 08:41 34.059467 -116.318683 140 9502ft 121kts
14-Oct-19 08:42 34.029014 -116.304966 153 9498ft 119kts
14-Oct-19 08:43 33.997746 -116.294156 171 9489ft 117kts
14-Oct-19 08:44 33.966385 -116.286064 171 9243ft 104kts
14-Oct-19 08:45 33.941398 -116.279572 172 8711ft 81kts
14-Oct-19 08:46 33.922382 -116.275336 215 8126ft 63kts
14-Oct-19 08:47 33.898777 -116.276550 186 7091ft 88kts
14-Oct-19 08:48 33.871770 -116.274502 174 5935ft 101kts
14-Oct-19 08:49 33.841012 -116.273988 186 4311ft 122kts
14-Oct-19 08:50 33.809452 -116.279995 192 2889ft 110kts
14-Oct-19 08:51 33.776213 -116.275536 175 900ft 120kts
14-Oct-19 08:52 33.752246 -116.284724 149 270ft 63kts
14-Oct-19 08:53 33.747531 -116.273189 200 64ft 5kts
14-Oct-19 08:54 33.746471 -116.272751 220 64ft 5kts
14-Oct-19 08:55 33.746209 -116.272797 219 64ft 8kts
14-Oct-19 08:56 33.746009 -116.272738 78 64ft 0kts
14-Oct-19 08:57 33.746009 -116.272738 78 64ft 0kts
14-Oct-19 08:58 33.746009 -116.272738 78 64ft 0kts

Navigation Log

Ident Type
Flight plan parsing failed, navigation log unavailable